sensor_id;sensor_type;location;lat;lon;timestamp;P1;durP1;ratioP1;P2;durP2;ratioP2
6864;SDS011;3471;49.678;8.388;2023-03-05T00:01:22;11.25;;;6.25;;
6864;SDS011;3471;49.678;8.388;2023-03-05T00:03:50;15.27;;;7.30;;
6864;SDS011;3471;49.678;8.388;2023-03-05T00:06:18;11.75;;;7.50;;
6864;SDS011;3471;49.678;8.388;2023-03-05T00:08:48;11.98;;;7.25;;
6864;SDS011;3471;49.678;8.388;2023-03-05T00:11:15;12.68;;;9.00;;
6864;SDS011;3471;49.678;8.388;2023-03-05T00:13:41;12.02;;;8.35;;
6864;SDS011;3471;49.678;8.388;2023-03-05T00:16:09;12.83;;;7.47;;
6864;SDS011;3471;49.678;8.388;2023-03-05T00:18:36;14.10;;;6.97;;
6864;SDS011;3471;49.678;8.388;2023-03-05T00:21:02;13.35;;;8.27;;
6864;SDS011;3471;49.678;8.388;2023-03-05T00:23:28;18.23;;;7.20;;
6864;SDS011;3471;49.678;8.388;2023-03-05T00:25:54;13.25;;;8.50;;
6864;SDS011;3471;49.678;8.388;2023-03-05T00:28:20;10.20;;;7.57;;
6864;SDS011;3471;49.678;8.388;2023-03-05T00:30:45;8.65;;;6.82;;
6864;SDS011;3471;49.678;8.388;2023-03-05T00:33:11;9.80;;;7.77;;
6864;SDS011;3471;49.678;8.388;2023-03-05T00:35:41;18.50;;;9.05;;
6864;SDS011;3471;49.678;8.388;2023-03-05T00:38:08;11.47;;;7.57;;
6864;SDS011;3471;49.678;8.388;2023-03-05T00:40:35;20.13;;;7.78;;
6864;SDS011;3471;49.678;8.388;2023-03-05T00:43:02;13.48;;;10.10;;
6864;SDS011;3471;49.678;8.388;2023-03-05T00:45:28;15.73;;;7.50;;
6864;SDS011;3471;49.678;8.388;2023-03-05T00:47:53;9.97;;;8.03;;
6864;SDS011;3471;49.678;8.388;2023-03-05T00:50:19;14.63;;;10.13;;
6864;SDS011;3471;49.678;8.388;2023-03-05T00:52:44;9.15;;;7.05;;
6864;SDS011;3471;49.678;8.388;2023-03-05T00:55:10;12.83;;;8.67;;
6864;SDS011;3471;49.678;8.388;2023-03-05T00:57:36;19.85;;;9.35;;
6864;SDS011;3471;49.678;8.388;2023-03-05T01:00:02;11.33;;;9.03;;
6864;SDS011;3471;49.678;8.388;2023-03-05T01:02:29;11.53;;;7.80;;
6864;SDS011;3471;49.678;8.388;2023-03-05T01:04:54;13.77;;;8.68;;
6864;SDS011;3471;49.678;8.388;2023-03-05T01:07:20;9.37;;;7.60;;
6864;SDS011;3471;49.678;8.388;2023-03-05T01:09:45;15.23;;;10.10;;
6864;SDS011;3471;49.678;8.388;2023-03-05T01:12:11;12.87;;;9.50;;
6864;SDS011;3471;49.678;8.388;2023-03-05T01:14:36;9.18;;;7.50;;
6864;SDS011;3471;49.678;8.388;2023-03-05T01:17:02;14.73;;;9.77;;
6864;SDS011;3471;49.678;8.388;2023-03-05T01:19:28;19.70;;;9.27;;
6864;SDS011;3471;49.678;8.388;2023-03-05T01:21:54;21.17;;;11.13;;
6864;SDS011;3471;49.678;8.388;2023-03-05T01:24:20;16.60;;;9.82;;
6864;SDS011;3471;49.678;8.388;2023-03-05T01:26:46;15.93;;;10.70;;
6864;SDS011;3471;49.678;8.388;2023-03-05T01:29:13;16.42;;;10.07;;
6864;SDS011;3471;49.678;8.388;2023-03-05T01:31:39;28.45;;;12.45;;
6864;SDS011;3471;49.678;8.388;2023-03-05T01:34:04;14.20;;;11.63;;
6864;SDS011;3471;49.678;8.388;2023-03-05T01:36:30;15.77;;;12.88;;
6864;SDS011;3471;49.678;8.388;2023-03-05T01:38:56;15.53;;;12.03;;
6864;SDS011;3471;49.678;8.388;2023-03-05T01:41:22;19.42;;;12.38;;
6864;SDS011;3471;49.678;8.388;2023-03-05T01:43:47;18.25;;;13.07;;
6864;SDS011;3471;49.678;8.388;2023-03-05T01:54:55;17.27;;;13.40;;
6864;SDS011;3471;49.678;8.388;2023-03-05T01:57:27;28.90;;;18.95;;
6864;SDS011;3471;49.678;8.388;2023-03-05T01:59:55;23.08;;;15.27;;
6864;SDS011;3471;49.678;8.388;2023-03-05T02:02:24;24.73;;;14.38;;
6864;SDS011;3471;49.678;8.388;2023-03-05T02:04:52;25.10;;;16.13;;
6864;SDS011;3471;49.678;8.388;2023-03-05T02:07:28;16.43;;;13.40;;
6864;SDS011;3471;49.678;8.388;2023-03-05T02:09:55;22.70;;;13.93;;
6864;SDS011;3471;49.678;8.388;2023-03-05T02:12:20;20.85;;;14.73;;
6864;SDS011;3471;49.678;8.388;2023-03-05T02:14:47;23.25;;;14.27;;
6864;SDS011;3471;49.678;8.388;2023-03-05T02:17:15;25.05;;;15.38;;
6864;SDS011;3471;49.678;8.388;2023-03-05T02:19:45;25.37;;;15.00;;
6864;SDS011;3471;49.678;8.388;2023-03-05T02:22:17;24.00;;;16.83;;
6864;SDS011;3471;49.678;8.388;2023-03-05T02:24:44;24.37;;;15.73;;
6864;SDS011;3471;49.678;8.388;2023-03-05T02:27:11;19.65;;;15.52;;
6864;SDS011;3471;49.678;8.388;2023-03-05T02:29:38;21.73;;;14.70;;
6864;SDS011;3471;49.678;8.388;2023-03-05T02:32:06;27.17;;;15.93;;
6864;SDS011;3471;49.678;8.388;2023-03-05T02:34:33;20.75;;;13.18;;
6864;SDS011;3471;49.678;8.388;2023-03-05T02:36:59;28.03;;;15.50;;
6864;SDS011;3471;49.678;8.388;2023-03-05T02:39:26;28.37;;;16.37;;
6864;SDS011;3471;49.678;8.388;2023-03-05T02:41:52;22.52;;;16.40;;
6864;SDS011;3471;49.678;8.388;2023-03-05T02:44:17;19.45;;;14.02;;
6864;SDS011;3471;49.678;8.388;2023-03-05T02:46:43;25.83;;;15.63;;
6864;SDS011;3471;49.678;8.388;2023-03-05T02:49:09;25.30;;;15.37;;
6864;SDS011;3471;49.678;8.388;2023-03-05T02:51:34;26.10;;;13.80;;
6864;SDS011;3471;49.678;8.388;2023-03-05T02:54:00;19.83;;;14.60;;
6864;SDS011;3471;49.678;8.388;2023-03-05T02:56:25;22.70;;;14.55;;
6864;SDS011;3471;49.678;8.388;2023-03-05T02:58:51;20.63;;;14.73;;
6864;SDS011;3471;49.678;8.388;2023-03-05T03:01:16;25.80;;;15.00;;
6864;SDS011;3471;49.678;8.388;2023-03-05T03:03:42;25.95;;;15.48;;
6864;SDS011;3471;49.678;8.388;2023-03-05T03:06:08;22.60;;;14.60;;
6864;SDS011;3471;49.678;8.388;2023-03-05T03:08:33;23.90;;;15.48;;
6864;SDS011;3471;49.678;8.388;2023-03-05T03:11:03;23.57;;;16.30;;
6864;SDS011;3471;49.678;8.388;2023-03-05T03:13:34;22.95;;;15.45;;
6864;SDS011;3471;49.678;8.388;2023-03-05T03:16:07;26.23;;;16.45;;
6864;SDS011;3471;49.678;8.388;2023-03-05T03:18:34;23.00;;;16.20;;
6864;SDS011;3471;49.678;8.388;2023-03-05T03:21:00;25.45;;;14.00;;
6864;SDS011;3471;49.678;8.388;2023-03-05T03:23:27;21.40;;;14.33;;
6864;SDS011;3471;49.678;8.388;2023-03-05T03:25:53;22.13;;;14.30;;
6864;SDS011;3471;49.678;8.388;2023-03-05T03:28:18;27.85;;;16.42;;
6864;SDS011;3471;49.678;8.388;2023-03-05T03:30:44;27.45;;;15.23;;
6864;SDS011;3471;49.678;8.388;2023-03-05T03:33:10;16.53;;;14.63;;
6864;SDS011;3471;49.678;8.388;2023-03-05T03:35:36;30.80;;;14.63;;
6864;SDS011;3471;49.678;8.388;2023-03-05T03:38:02;23.92;;;15.48;;
6864;SDS011;3471;49.678;8.388;2023-03-05T03:40:27;18.43;;;15.57;;
6864;SDS011;3471;49.678;8.388;2023-03-05T03:42:53;19.52;;;14.88;;
6864;SDS011;3471;49.678;8.388;2023-03-05T03:45:19;28.40;;;16.13;;
6864;SDS011;3471;49.678;8.388;2023-03-05T03:47:48;23.10;;;15.90;;
6864;SDS011;3471;49.678;8.388;2023-03-05T03:50:14;28.55;;;15.27;;
6864;SDS011;3471;49.678;8.388;2023-03-05T03:52:40;23.80;;;16.45;;
6864;SDS011;3471;49.678;8.388;2023-03-05T03:55:05;29.90;;;14.00;;
6864;SDS011;3471;49.678;8.388;2023-03-05T03:57:31;25.98;;;16.25;;
6864;SDS011;3471;49.678;8.388;2023-03-05T03:59:57;23.38;;;15.02;;
6864;SDS011;3471;49.678;8.388;2023-03-05T04:02:24;27.70;;;16.45;;
6864;SDS011;3471;49.678;8.388;2023-03-05T04:04:49;25.38;;;15.43;;
6864;SDS011;3471;49.678;8.388;2023-03-05T04:07:16;24.15;;;15.27;;
6864;SDS011;3471;49.678;8.388;2023-03-05T04:09:41;22.48;;;15.18;;
6864;SDS011;3471;49.678;8.388;2023-03-05T04:12:07;21.67;;;15.27;;
6864;SDS011;3471;49.678;8.388;2023-03-05T04:14:33;24.42;;;17.25;;
6864;SDS011;3471;49.678;8.388;2023-03-05T04:16:59;25.73;;;15.23;;
6864;SDS011;3471;49.678;8.388;2023-03-05T04:19:24;25.15;;;16.15;;
6864;SDS011;3471;49.678;8.388;2023-03-05T04:21:50;21.40;;;15.30;;
6864;SDS011;3471;49.678;8.388;2023-03-05T04:24:15;26.60;;;13.30;;
6864;SDS011;3471;49.678;8.388;2023-03-05T04:26:41;29.40;;;13.87;;
6864;SDS011;3471;49.678;8.388;2023-03-05T04:29:07;28.65;;;14.77;;
6864;SDS011;3471;49.678;8.388;2023-03-05T04:31:32;29.47;;;15.13;;
6864;SDS011;3471;49.678;8.388;2023-03-05T04:33:58;20.95;;;15.07;;
6864;SDS011;3471;49.678;8.388;2023-03-05T04:36:24;23.87;;;13.37;;
6864;SDS011;3471;49.678;8.388;2023-03-05T04:38:49;24.67;;;16.35;;
6864;SDS011;3471;49.678;8.388;2023-03-05T04:41:15;29.77;;;14.83;;
6864;SDS011;3471;49.678;8.388;2023-03-05T04:43:40;19.73;;;14.48;;
6864;SDS011;3471;49.678;8.388;2023-03-05T04:46:06;24.97;;;15.10;;
6864;SDS011;3471;49.678;8.388;2023-03-05T04:48:31;21.73;;;14.57;;
6864;SDS011;3471;49.678;8.388;2023-03-05T04:50:57;30.17;;;15.43;;
6864;SDS011;3471;49.678;8.388;2023-03-05T04:53:24;20.87;;;12.87;;
6864;SDS011;3471;49.678;8.388;2023-03-05T04:55:53;16.67;;;11.32;;
6864;SDS011;3471;49.678;8.388;2023-03-05T04:58:19;21.52;;;13.75;;
6864;SDS011;3471;49.678;8.388;2023-03-05T05:00:45;27.77;;;14.97;;
6864;SDS011;3471;49.678;8.388;2023-03-05T05:03:10;19.13;;;12.60;;
6864;SDS011;3471;49.678;8.388;2023-03-05T05:05:36;28.58;;;13.35;;
6864;SDS011;3471;49.678;8.388;2023-03-05T05:08:02;18.20;;;12.17;;
6864;SDS011;3471;49.678;8.388;2023-03-05T05:10:27;27.10;;;14.45;;
6864;SDS011;3471;49.678;8.388;2023-03-05T05:12:53;22.57;;;14.40;;
6864;SDS011;3471;49.678;8.388;2023-03-05T05:15:19;22.70;;;13.00;;
6864;SDS011;3471;49.678;8.388;2023-03-05T05:17:45;33.30;;;14.30;;
6864;SDS011;3471;49.678;8.388;2023-03-05T05:20:12;21.00;;;14.68;;
6864;SDS011;3471;49.678;8.388;2023-03-05T05:22:38;17.63;;;12.27;;
6864;SDS011;3471;49.678;8.388;2023-03-05T05:25:04;20.58;;;13.23;;
6864;SDS011;3471;49.678;8.388;2023-03-05T05:27:30;23.33;;;13.15;;
6864;SDS011;3471;49.678;8.388;2023-03-05T05:29:56;20.20;;;14.30;;
6864;SDS011;3471;49.678;8.388;2023-03-05T05:32:22;19.85;;;13.65;;
6864;SDS011;3471;49.678;8.388;2023-03-05T05:34:52;24.80;;;13.35;;
6864;SDS011;3471;49.678;8.388;2023-03-05T05:37:19;28.85;;;13.52;;
6864;SDS011;3471;49.678;8.388;2023-03-05T05:39:44;27.13;;;14.93;;
6864;SDS011;3471;49.678;8.388;2023-03-05T05:42:14;24.08;;;13.30;;
6864;SDS011;3471;49.678;8.388;2023-03-05T05:44:41;21.45;;;13.68;;
6864;SDS011;3471;49.678;8.388;2023-03-05T05:47:07;31.90;;;11.63;;
6864;SDS011;3471;49.678;8.388;2023-03-05T05:49:32;21.90;;;13.77;;
6864;SDS011;3471;49.678;8.388;2023-03-05T05:51:58;25.50;;;13.07;;
6864;SDS011;3471;49.678;8.388;2023-03-05T05:54:23;27.95;;;13.88;;
6864;SDS011;3471;49.678;8.388;2023-03-05T05:56:49;26.93;;;14.20;;
6864;SDS011;3471;49.678;8.388;2023-03-05T05:59:14;15.30;;;10.30;;
6864;SDS011;3471;49.678;8.388;2023-03-05T06:01:40;18.83;;;12.97;;
6864;SDS011;3471;49.678;8.388;2023-03-05T06:04:06;15.03;;;11.30;;
6864;SDS011;3471;49.678;8.388;2023-03-05T06:06:32;18.25;;;11.35;;
6864;SDS011;3471;49.678;8.388;2023-03-05T06:08:58;16.13;;;12.13;;
6864;SDS011;3471;49.678;8.388;2023-03-05T06:11:24;21.48;;;13.38;;
6864;SDS011;3471;49.678;8.388;2023-03-05T06:13:50;22.73;;;11.52;;
6864;SDS011;3471;49.678;8.388;2023-03-05T06:16:18;20.20;;;12.60;;
6864;SDS011;3471;49.678;8.388;2023-03-05T06:18:45;26.25;;;12.10;;
6864;SDS011;3471;49.678;8.388;2023-03-05T06:21:12;16.85;;;12.50;;
6864;SDS011;3471;49.678;8.388;2023-03-05T06:23:39;16.52;;;11.15;;
6864;SDS011;3471;49.678;8.388;2023-03-05T06:26:06;16.88;;;10.77;;
6864;SDS011;3471;49.678;8.388;2023-03-05T06:28:34;24.23;;;9.27;;
6864;SDS011;3471;49.678;8.388;2023-03-05T06:31:10;22.97;;;11.47;;
6864;SDS011;3471;49.678;8.388;2023-03-05T06:33:38;14.90;;;10.90;;
6864;SDS011;3471;49.678;8.388;2023-03-05T06:36:05;20.58;;;10.50;;
6864;SDS011;3471;49.678;8.388;2023-03-05T06:38:33;17.23;;;9.25;;
6864;SDS011;3471;49.678;8.388;2023-03-05T06:40:59;20.98;;;10.60;;
6864;SDS011;3471;49.678;8.388;2023-03-05T06:43:26;19.63;;;10.30;;
6864;SDS011;3471;49.678;8.388;2023-03-05T06:46:01;15.83;;;9.47;;
6864;SDS011;3471;49.678;8.388;2023-03-05T06:48:28;16.25;;;10.82;;
6864;SDS011;3471;49.678;8.388;2023-03-05T06:50:54;15.07;;;10.10;;
6864;SDS011;3471;49.678;8.388;2023-03-05T06:53:19;15.18;;;9.90;;
6864;SDS011;3471;49.678;8.388;2023-03-05T06:55:45;20.50;;;14.67;;
6864;SDS011;3471;49.678;8.388;2023-03-05T06:58:11;82.55;;;48.50;;
6864;SDS011;3471;49.678;8.388;2023-03-05T07:00:37;53.92;;;37.45;;
6864;SDS011;3471;49.678;8.388;2023-03-05T07:03:02;33.10;;;22.50;;
6864;SDS011;3471;49.678;8.388;2023-03-05T07:05:28;19.73;;;13.65;;
6864;SDS011;3471;49.678;8.388;2023-03-05T07:07:53;50.77;;;23.70;;
6864;SDS011;3471;49.678;8.388;2023-03-05T07:10:19;90.13;;;43.80;;
6864;SDS011;3471;49.678;8.388;2023-03-05T07:12:44;49.33;;;28.92;;
6864;SDS011;3471;49.678;8.388;2023-03-05T07:15:10;42.97;;;21.93;;
6864;SDS011;3471;49.678;8.388;2023-03-05T07:17:36;25.05;;;15.30;;
6864;SDS011;3471;49.678;8.388;2023-03-05T07:20:01;19.13;;;11.43;;
6864;SDS011;3471;49.678;8.388;2023-03-05T07:22:28;15.52;;;9.55;;
6864;SDS011;3471;49.678;8.388;2023-03-05T07:24:54;25.50;;;12.15;;
6864;SDS011;3471;49.678;8.388;2023-03-05T07:27:19;30.40;;;12.27;;
6864;SDS011;3471;49.678;8.388;2023-03-05T07:29:47;16.57;;;8.60;;
6864;SDS011;3471;49.678;8.388;2023-03-05T07:32:12;14.00;;;9.25;;
6864;SDS011;3471;49.678;8.388;2023-03-05T07:34:38;18.00;;;9.30;;
6864;SDS011;3471;49.678;8.388;2023-03-05T07:37:03;15.05;;;8.25;;
6864;SDS011;3471;49.678;8.388;2023-03-05T07:39:29;13.80;;;8.60;;
6864;SDS011;3471;49.678;8.388;2023-03-05T07:41:55;12.57;;;9.43;;
6864;SDS011;3471;49.678;8.388;2023-03-05T07:44:20;14.60;;;8.18;;
6864;SDS011;3471;49.678;8.388;2023-03-05T07:46:46;22.60;;;9.90;;
6864;SDS011;3471;49.678;8.388;2023-03-05T07:49:11;19.30;;;9.68;;
6864;SDS011;3471;49.678;8.388;2023-03-05T07:51:38;16.17;;;8.33;;
6864;SDS011;3471;49.678;8.388;2023-03-05T07:54:04;12.15;;;9.55;;
6864;SDS011;3471;49.678;8.388;2023-03-05T07:56:31;19.33;;;9.45;;
6864;SDS011;3471;49.678;8.388;2023-03-05T07:59:00;11.45;;;9.13;;
6864;SDS011;3471;49.678;8.388;2023-03-05T08:01:28;13.37;;;9.40;;
6864;SDS011;3471;49.678;8.388;2023-03-05T08:03:55;14.30;;;9.20;;
6864;SDS011;3471;49.678;8.388;2023-03-05T08:06:20;15.95;;;8.93;;
6864;SDS011;3471;49.678;8.388;2023-03-05T08:08:46;16.50;;;8.77;;
6864;SDS011;3471;49.678;8.388;2023-03-05T08:11:13;22.15;;;9.02;;
6864;SDS011;3471;49.678;8.388;2023-03-05T08:13:39;15.55;;;8.18;;
6864;SDS011;3471;49.678;8.388;2023-03-05T08:16:06;9.63;;;6.50;;
6864;SDS011;3471;49.678;8.388;2023-03-05T08:18:39;13.65;;;7.53;;
6864;SDS011;3471;49.678;8.388;2023-03-05T08:21:05;16.52;;;7.55;;
6864;SDS011;3471;49.678;8.388;2023-03-05T08:23:39;9.07;;;5.90;;
6864;SDS011;3471;49.678;8.388;2023-03-05T08:26:10;9.30;;;6.60;;
6864;SDS011;3471;49.678;8.388;2023-03-05T08:28:37;10.73;;;7.57;;
6864;SDS011;3471;49.678;8.388;2023-03-05T08:31:06;8.93;;;6.87;;
6864;SDS011;3471;49.678;8.388;2023-03-05T08:33:33;8.63;;;6.28;;
6864;SDS011;3471;49.678;8.388;2023-03-05T08:35:58;10.70;;;6.30;;
6864;SDS011;3471;49.678;8.388;2023-03-05T08:38:24;10.33;;;6.37;;
6864;SDS011;3471;49.678;8.388;2023-03-05T08:40:50;9.60;;;4.78;;
6864;SDS011;3471;49.678;8.388;2023-03-05T08:43:16;11.63;;;6.13;;
6864;SDS011;3471;49.678;8.388;2023-03-05T08:45:41;7.50;;;6.10;;
6864;SDS011;3471;49.678;8.388;2023-03-05T08:48:07;15.90;;;6.57;;
6864;SDS011;3471;49.678;8.388;2023-03-05T08:50:34;10.60;;;6.67;;
6864;SDS011;3471;49.678;8.388;2023-03-05T08:53:00;7.80;;;4.78;;
6864;SDS011;3471;49.678;8.388;2023-03-05T08:55:26;14.87;;;5.13;;
6864;SDS011;3471;49.678;8.388;2023-03-05T08:57:52;7.28;;;5.40;;
6864;SDS011;3471;49.678;8.388;2023-03-05T09:00:17;18.10;;;6.33;;
6864;SDS011;3471;49.678;8.388;2023-03-05T09:02:43;10.50;;;4.95;;
6864;SDS011;3471;49.678;8.388;2023-03-05T09:05:09;4.53;;;3.53;;
6864;SDS011;3471;49.678;8.388;2023-03-05T09:07:35;12.30;;;5.40;;
6864;SDS011;3471;49.678;8.388;2023-03-05T09:10:02;8.60;;;5.78;;
6864;SDS011;3471;49.678;8.388;2023-03-05T09:12:30;4.68;;;3.50;;
6864;SDS011;3471;49.678;8.388;2023-03-05T09:14:56;12.95;;;5.43;;
6864;SDS011;3471;49.678;8.388;2023-03-05T09:17:22;7.20;;;5.90;;
6864;SDS011;3471;49.678;8.388;2023-03-05T09:19:50;9.85;;;6.00;;
6864;SDS011;3471;49.678;8.388;2023-03-05T09:22:16;7.10;;;4.20;;
6864;SDS011;3471;49.678;8.388;2023-03-05T09:24:41;6.33;;;4.53;;
6864;SDS011;3471;49.678;8.388;2023-03-05T09:27:08;10.52;;;5.90;;
6864;SDS011;3471;49.678;8.388;2023-03-05T09:29:33;14.70;;;10.97;;
6864;SDS011;3471;49.678;8.388;2023-03-05T09:31:59;10.93;;;8.10;;
6864;SDS011;3471;49.678;8.388;2023-03-05T09:34:24;12.73;;;6.85;;
6864;SDS011;3471;49.678;8.388;2023-03-05T09:36:50;11.37;;;8.33;;
6864;SDS011;3471;49.678;8.388;2023-03-05T09:39:15;10.77;;;5.85;;
6864;SDS011;3471;49.678;8.388;2023-03-05T09:44:41;17.13;;;8.38;;
6864;SDS011;3471;49.678;8.388;2023-03-05T09:52:53;14.07;;;6.78;;
6864;SDS011;3471;49.678;8.388;2023-03-05T09:55:26;10.05;;;7.43;;
6864;SDS011;3471;49.678;8.388;2023-03-05T09:57:57;10.75;;;8.15;;
6864;SDS011;3471;49.678;8.388;2023-03-05T10:00:35;8.97;;;7.40;;
6864;SDS011;3471;49.678;8.388;2023-03-05T10:03:11;11.57;;;8.02;;
6864;SDS011;3471;49.678;8.388;2023-03-05T10:06:01;18.15;;;6.82;;
6864;SDS011;3471;49.678;8.388;2023-03-05T10:08:43;14.55;;;7.05;;
6864;SDS011;3471;49.678;8.388;2023-03-05T10:11:14;9.48;;;7.30;;
6864;SDS011;3471;49.678;8.388;2023-03-05T10:14:05;9.23;;;5.25;;
6864;SDS011;3471;49.678;8.388;2023-03-05T10:22:09;10.70;;;6.22;;
6864;SDS011;3471;49.678;8.388;2023-03-05T10:25:02;13.70;;;5.77;;
6864;SDS011;3471;49.678;8.388;2023-03-05T10:27:50;10.83;;;5.50;;
6864;SDS011;3471;49.678;8.388;2023-03-05T10:33:14;13.73;;;6.15;;
6864;SDS011;3471;49.678;8.388;2023-03-05T10:36:11;10.63;;;6.22;;
6864;SDS011;3471;49.678;8.388;2023-03-05T10:43:51;10.27;;;6.07;;
6864;SDS011;3471;49.678;8.388;2023-03-05T10:46:22;14.68;;;4.70;;
6864;SDS011;3471;49.678;8.388;2023-03-05T10:48:54;7.00;;;4.78;;
6864;SDS011;3471;49.678;8.388;2023-03-05T10:54:10;7.43;;;4.78;;
6864;SDS011;3471;49.678;8.388;2023-03-05T10:56:45;11.23;;;5.88;;
6864;SDS011;3471;49.678;8.388;2023-03-05T10:59:11;6.18;;;4.70;;
6864;SDS011;3471;49.678;8.388;2023-03-05T11:01:36;12.27;;;6.00;;
6864;SDS011;3471;49.678;8.388;2023-03-05T11:04:03;5.47;;;4.80;;
6864;SDS011;3471;49.678;8.388;2023-03-05T11:06:48;8.80;;;5.38;;
6864;SDS011;3471;49.678;8.388;2023-03-05T11:09:16;17.67;;;8.30;;
6864;SDS011;3471;49.678;8.388;2023-03-05T11:12:12;7.40;;;4.90;;
6864;SDS011;3471;49.678;8.388;2023-03-05T11:17:31;10.50;;;3.93;;
6864;SDS011;3471;49.678;8.388;2023-03-05T11:25:52;9.68;;;5.68;;
6864;SDS011;3471;49.678;8.388;2023-03-05T11:28:19;8.88;;;5.00;;
6864;SDS011;3471;49.678;8.388;2023-03-05T11:31:21;8.13;;;5.03;;
6864;SDS011;3471;49.678;8.388;2023-03-05T11:34:42;11.73;;;4.57;;
6864;SDS011;3471;49.678;8.388;2023-03-05T11:37:04;10.45;;;6.38;;
6864;SDS011;3471;49.678;8.388;2023-03-05T11:39:30;12.23;;;7.95;;
6864;SDS011;3471;49.678;8.388;2023-03-05T11:42:16;13.60;;;7.97;;
6864;SDS011;3471;49.678;8.388;2023-03-05T11:44:49;89.88;;;40.50;;
6864;SDS011;3471;49.678;8.388;2023-03-05T11:50:29;43.10;;;26.20;;
6864;SDS011;3471;49.678;8.388;2023-03-05T11:53:01;21.67;;;13.65;;
6864;SDS011;3471;49.678;8.388;2023-03-05T11:58:49;15.20;;;9.38;;
6864;SDS011;3471;49.678;8.388;2023-03-05T12:01:23;17.02;;;12.27;;
6864;SDS011;3471;49.678;8.388;2023-03-05T12:03:51;13.50;;;9.60;;
6864;SDS011;3471;49.678;8.388;2023-03-05T12:09:17;17.75;;;9.80;;
6864;SDS011;3471;49.678;8.388;2023-03-05T12:12:06;8.88;;;7.03;;
6864;SDS011;3471;49.678;8.388;2023-03-05T12:14:56;13.10;;;9.95;;
6864;SDS011;3471;49.678;8.388;2023-03-05T12:20:17;11.00;;;6.90;;
6864;SDS011;3471;49.678;8.388;2023-03-05T12:22:46;11.75;;;8.32;;
6864;SDS011;3471;49.678;8.388;2023-03-05T12:25:31;15.33;;;8.23;;
6864;SDS011;3471;49.678;8.388;2023-03-05T12:27:59;11.73;;;6.20;;
6864;SDS011;3471;49.678;8.388;2023-03-05T12:38:49;16.38;;;8.07;;
6864;SDS011;3471;49.678;8.388;2023-03-05T12:46:35;32.38;;;19.35;;
6864;SDS011;3471;49.678;8.388;2023-03-05T12:51:51;16.98;;;11.20;;
6864;SDS011;3471;49.678;8.388;2023-03-05T12:57:22;17.75;;;6.60;;
6864;SDS011;3471;49.678;8.388;2023-03-05T13:02:25;9.48;;;6.85;;
6864;SDS011;3471;49.678;8.388;2023-03-05T13:04:56;11.48;;;6.80;;
6864;SDS011;3471;49.678;8.388;2023-03-05T13:07:24;10.70;;;4.90;;
6864;SDS011;3471;49.678;8.388;2023-03-05T13:09:56;9.07;;;5.70;;
6864;SDS011;3471;49.678;8.388;2023-03-05T13:12:24;8.57;;;4.75;;
6864;SDS011;3471;49.678;8.388;2023-03-05T13:15:02;9.27;;;4.80;;
6864;SDS011;3471;49.678;8.388;2023-03-05T13:17:37;15.23;;;5.93;;
6864;SDS011;3471;49.678;8.388;2023-03-05T13:20:26;15.52;;;7.32;;
6864;SDS011;3471;49.678;8.388;2023-03-05T13:25:58;9.20;;;5.15;;
6864;SDS011;3471;49.678;8.388;2023-03-05T13:28:27;10.27;;;7.70;;
6864;SDS011;3471;49.678;8.388;2023-03-05T13:30:55;5.15;;;3.63;;
6864;SDS011;3471;49.678;8.388;2023-03-05T13:33:35;13.95;;;5.78;;
6864;SDS011;3471;49.678;8.388;2023-03-05T13:36:01;8.90;;;5.25;;
6864;SDS011;3471;49.678;8.388;2023-03-05T13:38:35;9.75;;;5.75;;
6864;SDS011;3471;49.678;8.388;2023-03-05T13:43:44;8.00;;;4.78;;
6864;SDS011;3471;49.678;8.388;2023-03-05T13:46:37;10.07;;;6.35;;
6864;SDS011;3471;49.678;8.388;2023-03-05T13:51:43;12.47;;;5.10;;
6864;SDS011;3471;49.678;8.388;2023-03-05T13:54:13;6.10;;;5.10;;
6864;SDS011;3471;49.678;8.388;2023-03-05T13:56:51;11.02;;;5.97;;
6864;SDS011;3471;49.678;8.388;2023-03-05T13:59:32;10.43;;;5.90;;
6864;SDS011;3471;49.678;8.388;2023-03-05T14:02:00;8.07;;;4.70;;
6864;SDS011;3471;49.678;8.388;2023-03-05T14:04:40;12.65;;;6.70;;
6864;SDS011;3471;49.678;8.388;2023-03-05T14:07:21;12.27;;;6.40;;
6864;SDS011;3471;49.678;8.388;2023-03-05T14:10:21;15.15;;;7.97;;
6864;SDS011;3471;49.678;8.388;2023-03-05T14:13:03;13.85;;;7.47;;
6864;SDS011;3471;49.678;8.388;2023-03-05T14:15:35;6.63;;;4.43;;
6864;SDS011;3471;49.678;8.388;2023-03-05T14:20:32;7.50;;;4.43;;
6864;SDS011;3471;49.678;8.388;2023-03-05T14:22:59;8.05;;;5.50;;
6864;SDS011;3471;49.678;8.388;2023-03-05T14:25:30;9.60;;;6.43;;
6864;SDS011;3471;49.678;8.388;2023-03-05T14:27:59;4.60;;;4.07;;
6864;SDS011;3471;49.678;8.388;2023-03-05T14:30:26;11.30;;;5.27;;
6864;SDS011;3471;49.678;8.388;2023-03-05T14:32:54;11.17;;;4.90;;
6864;SDS011;3471;49.678;8.388;2023-03-05T14:35:22;19.85;;;6.68;;
6864;SDS011;3471;49.678;8.388;2023-03-05T14:37:50;7.85;;;5.28;;
6864;SDS011;3471;49.678;8.388;2023-03-05T14:40:22;8.70;;;5.07;;
6864;SDS011;3471;49.678;8.388;2023-03-05T14:42:56;8.27;;;4.82;;
6864;SDS011;3471;49.678;8.388;2023-03-05T14:45:24;12.00;;;5.57;;
6864;SDS011;3471;49.678;8.388;2023-03-05T14:47:53;23.67;;;5.28;;
6864;SDS011;3471;49.678;8.388;2023-03-05T14:50:20;12.10;;;5.70;;
6864;SDS011;3471;49.678;8.388;2023-03-05T14:52:49;8.35;;;4.18;;
6864;SDS011;3471;49.678;8.388;2023-03-05T14:55:18;13.10;;;5.75;;
6864;SDS011;3471;49.678;8.388;2023-03-05T14:57:49;7.43;;;5.93;;
6864;SDS011;3471;49.678;8.388;2023-03-05T15:02:45;11.18;;;5.55;;
6864;SDS011;3471;49.678;8.388;2023-03-05T15:05:12;12.15;;;7.45;;
6864;SDS011;3471;49.678;8.388;2023-03-05T15:07:38;12.30;;;5.53;;
6864;SDS011;3471;49.678;8.388;2023-03-05T15:10:03;20.10;;;5.70;;
6864;SDS011;3471;49.678;8.388;2023-03-05T15:12:31;12.95;;;4.93;;
6864;SDS011;3471;49.678;8.388;2023-03-05T15:14:57;6.57;;;4.75;;
6864;SDS011;3471;49.678;8.388;2023-03-05T15:17:25;7.20;;;4.30;;
6864;SDS011;3471;49.678;8.388;2023-03-05T15:19:59;6.18;;;5.30;;
6864;SDS011;3471;49.678;8.388;2023-03-05T15:22:25;6.53;;;5.17;;
6864;SDS011;3471;49.678;8.388;2023-03-05T15:24:51;11.32;;;5.18;;
6864;SDS011;3471;49.678;8.388;2023-03-05T15:27:16;10.30;;;6.67;;
6864;SDS011;3471;49.678;8.388;2023-03-05T15:29:42;15.50;;;6.97;;
6864;SDS011;3471;49.678;8.388;2023-03-05T15:32:08;12.70;;;5.82;;
6864;SDS011;3471;49.678;8.388;2023-03-05T15:34:34;9.18;;;5.38;;
6864;SDS011;3471;49.678;8.388;2023-03-05T15:37:01;6.10;;;5.00;;
6864;SDS011;3471;49.678;8.388;2023-03-05T15:39:27;13.60;;;6.82;;
6864;SDS011;3471;49.678;8.388;2023-03-05T15:41:53;7.57;;;5.50;;
6864;SDS011;3471;49.678;8.388;2023-03-05T15:44:19;6.30;;;4.10;;
6864;SDS011;3471;49.678;8.388;2023-03-05T15:46:45;9.82;;;5.05;;
6864;SDS011;3471;49.678;8.388;2023-03-05T15:49:11;5.90;;;3.65;;
6864;SDS011;3471;49.678;8.388;2023-03-05T15:51:38;6.68;;;3.85;;
6864;SDS011;3471;49.678;8.388;2023-03-05T15:54:03;12.82;;;5.40;;
6864;SDS011;3471;49.678;8.388;2023-03-05T15:56:29;7.00;;;4.20;;
6864;SDS011;3471;49.678;8.388;2023-03-05T15:58:54;8.13;;;4.27;;
6864;SDS011;3471;49.678;8.388;2023-03-05T16:01:20;7.05;;;4.47;;
6864;SDS011;3471;49.678;8.388;2023-03-05T16:03:47;6.78;;;4.68;;
6864;SDS011;3471;49.678;8.388;2023-03-05T16:06:13;8.10;;;5.43;;
6864;SDS011;3471;49.678;8.388;2023-03-05T16:08:44;11.10;;;6.07;;
6864;SDS011;3471;49.678;8.388;2023-03-05T16:11:10;8.23;;;4.97;;
6864;SDS011;3471;49.678;8.388;2023-03-05T16:13:37;7.60;;;4.70;;
6864;SDS011;3471;49.678;8.388;2023-03-05T16:16:03;10.30;;;4.20;;
6864;SDS011;3471;49.678;8.388;2023-03-05T16:18:30;6.47;;;4.88;;
6864;SDS011;3471;49.678;8.388;2023-03-05T16:20:58;11.60;;;5.47;;
6864;SDS011;3471;49.678;8.388;2023-03-05T16:23:24;9.30;;;4.32;;
6864;SDS011;3471;49.678;8.388;2023-03-05T16:25:51;7.18;;;3.97;;
6864;SDS011;3471;49.678;8.388;2023-03-05T16:28:17;9.68;;;6.25;;
6864;SDS011;3471;49.678;8.388;2023-03-05T16:30:42;8.35;;;5.20;;
6864;SDS011;3471;49.678;8.388;2023-03-05T16:33:08;11.30;;;5.40;;
6864;SDS011;3471;49.678;8.388;2023-03-05T16:35:34;7.18;;;4.97;;